createdAt,value
2019-02-20T00:00:35.294Z,4.96
2019-02-20T00:03:04.353Z,4.87
2019-02-20T00:05:32.998Z,4.81
2019-02-20T00:08:01.993Z,4.76
2019-02-20T00:10:30.933Z,4.74
2019-02-20T00:12:59.894Z,4.70
2019-02-20T00:15:28.631Z,4.69
2019-02-20T00:17:57.321Z,4.67
2019-02-20T00:20:28.404Z,4.74
2019-02-20T00:22:58.630Z,4.73
2019-02-20T00:25:27.289Z,4.75
2019-02-20T00:27:58.099Z,4.74
2019-02-20T00:30:27.094Z,4.79
2019-02-20T00:32:55.766Z,4.77
2019-02-20T00:35:24.428Z,4.81
2019-02-20T00:37:53.500Z,4.84
2019-02-20T00:40:22.184Z,4.92
2019-02-20T00:42:51.130Z,4.89
2019-02-20T00:45:30.466Z,4.89
2019-02-20T00:48:36.564Z,4.93
2019-02-20T00:51:32.147Z,4.98
2019-02-20T00:54:04.758Z,4.96
2019-02-20T00:56:33.722Z,4.91
2019-02-20T00:59:02.706Z,4.90
2019-02-20T01:01:31.361Z,4.84
2019-02-20T01:04:00.791Z,4.29
2019-02-20T01:06:29.533Z,4.81
2019-02-20T01:08:59.087Z,4.86
2019-02-20T01:11:27.818Z,5.00
2019-02-20T01:13:57.074Z,4.95
2019-02-20T01:16:25.997Z,4.88
2019-02-20T01:18:54.960Z,5.09
2019-02-20T01:21:24.188Z,5.04
2019-02-20T01:23:53.162Z,5.11
2019-02-20T01:26:21.836Z,5.02
2019-02-20T01:28:51.027Z,4.93
2019-02-20T01:31:20.046Z,4.93
2019-02-20T01:33:49.011Z,4.94
2019-02-20T01:36:17.695Z,4.93
2019-02-20T01:38:46.339Z,5.09
2019-02-20T01:41:15.003Z,5.10
2019-02-20T01:43:44.261Z,5.15
2019-02-20T01:46:12.928Z,5.11
2019-02-20T01:48:41.874Z,5.10
2019-02-20T01:51:10.536Z,5.15
2019-02-20T01:53:39.549Z,5.09
2019-02-20T01:56:08.569Z,5.23
2019-02-20T01:58:37.551Z,5.11
2019-02-20T02:01:06.316Z,5.08
2019-02-20T02:03:34.970Z,5.14
2019-02-20T02:06:03.639Z,5.14
2019-02-20T02:08:32.277Z,5.19
2019-02-20T02:11:01.447Z,5.16
2019-02-20T02:13:30.439Z,5.17
2019-02-20T02:15:59.131Z,5.20
2019-02-20T02:18:27.788Z,5.23
2019-02-20T02:20:56.453Z,5.20
2019-02-20T02:23:25.373Z,5.17
2019-02-20T02:25:54.033Z,5.16
2019-02-20T02:28:23.279Z,5.15
2019-02-20T02:30:52.362Z,5.22
2019-02-20T02:33:21.015Z,5.21
2019-02-20T02:35:50.365Z,5.20
2019-02-20T02:38:19.103Z,5.18
2019-02-20T02:40:47.946Z,5.18
2019-02-20T02:43:16.590Z,5.14
2019-02-20T02:45:45.310Z,5.14
2019-02-20T02:48:14.004Z,5.13
2019-02-20T02:50:42.696Z,5.15
2019-02-20T02:53:11.354Z,5.17
2019-02-20T02:55:40.361Z,5.18
2019-02-20T02:58:09.172Z,5.18
2019-02-20T03:00:38.148Z,5.20
2019-02-20T03:03:07.120Z,5.25
2019-02-20T03:05:35.781Z,5.26
2019-02-20T03:08:04.802Z,5.29
2019-02-20T03:10:33.717Z,5.31
2019-02-20T03:13:03.305Z,5.30
2019-02-20T03:15:32.044Z,5.34
2019-02-20T03:18:00.731Z,5.27
2019-02-20T03:20:29.660Z,5.28
2019-02-20T03:22:58.346Z,5.36
2019-02-20T03:25:27.344Z,5.33
2019-02-20T03:27:56.031Z,5.29
2019-02-20T03:30:24.713Z,5.28
2019-02-20T03:32:53.717Z,5.27
2019-02-20T03:35:22.387Z,5.27
2019-02-20T03:37:51.295Z,5.30
2019-02-20T03:40:19.963Z,5.33
2019-02-20T03:42:48.971Z,5.35
2019-02-20T03:45:17.632Z,5.37
2019-02-20T03:47:46.296Z,5.30
2019-02-20T03:50:17.407Z,5.27
2019-02-20T03:52:46.362Z,5.25
2019-02-20T03:55:15.087Z,5.25
2019-02-20T03:57:44.052Z,5.26
2019-02-20T04:00:13.183Z,5.28
2019-02-20T04:02:41.847Z,5.30
2019-02-20T04:05:10.518Z,5.30
2019-02-20T04:07:39.433Z,5.28
2019-02-20T04:10:09.132Z,5.29
2019-02-20T04:12:38.065Z,5.22
2019-02-20T04:15:07.017Z,5.28
2019-02-20T04:17:35.845Z,5.26
2019-02-20T04:20:05.707Z,5.30
2019-02-20T04:22:34.889Z,5.26
2019-02-20T04:25:03.541Z,5.31
2019-02-20T04:27:32.570Z,5.23
2019-02-20T04:30:01.544Z,5.22
2019-02-20T04:32:30.234Z,5.21
2019-02-20T04:34:59.159Z,5.24
2019-02-20T04:37:28.136Z,5.25
2019-02-20T04:39:56.866Z,5.22
2019-02-20T04:42:25.822Z,5.27
2019-02-20T04:44:54.506Z,5.27
2019-02-20T04:47:23.262Z,5.28
2019-02-20T04:49:51.928Z,5.30
2019-02-20T04:52:20.872Z,5.33
2019-02-20T04:54:49.768Z,5.24
2019-02-20T04:57:18.770Z,5.28
2019-02-20T04:59:50.251Z,5.25
2019-02-20T05:02:19.868Z,5.33
2019-02-20T05:04:48.553Z,5.28
2019-02-20T05:07:17.448Z,5.27
2019-02-20T05:09:46.108Z,5.25
2019-02-20T05:12:14.788Z,5.23
2019-02-20T05:14:43.478Z,5.25
2019-02-20T05:17:12.128Z,5.20
2019-02-20T05:19:41.051Z,5.21
2019-02-20T05:22:09.976Z,5.22
2019-02-20T05:24:39.150Z,5.18
2019-02-20T05:27:07.825Z,5.21
2019-02-20T05:29:38.701Z,5.18
2019-02-20T05:32:07.530Z,5.17
2019-02-20T05:34:36.188Z,5.10
2019-02-20T05:37:04.869Z,5.16
2019-02-20T05:39:33.795Z,5.17
2019-02-20T05:42:02.459Z,5.10
2019-02-20T05:44:31.386Z,5.06
2019-02-20T05:47:00.298Z,5.11
2019-02-20T05:49:29.872Z,5.13
2019-02-20T05:51:58.817Z,5.13
2019-02-20T05:54:34.053Z,5.24
2019-02-20T05:56:58.137Z,5.17
2019-02-20T05:59:26.834Z,5.06
2019-02-20T06:01:55.724Z,5.00
2019-02-20T06:04:24.406Z,4.97
2019-02-20T06:06:53.343Z,5.01
2019-02-20T06:09:22.009Z,5.05
2019-02-20T06:11:50.653Z,5.04
2019-02-20T06:14:19.580Z,5.05
2019-02-20T06:16:48.247Z,4.96
2019-02-20T06:19:17.163Z,4.92
2019-02-20T06:21:48.494Z,4.92
2019-02-20T06:24:18.715Z,4.96
2019-02-20T06:26:47.437Z,4.94
2019-02-20T06:29:19.691Z,4.94
2019-02-20T06:31:48.469Z,4.98
2019-02-20T06:34:18.225Z,4.93
2019-02-20T06:36:47.077Z,4.93
2019-02-20T06:39:16.359Z,4.94
2019-02-20T06:41:45.207Z,4.99
2019-02-20T06:44:14.503Z,4.99
2019-02-20T06:46:43.241Z,5.01
2019-02-20T06:49:14.366Z,4.91
2019-02-20T06:51:43.012Z,4.93
2019-02-20T06:54:11.682Z,4.95
2019-02-20T06:56:40.696Z,4.98
2019-02-20T06:59:09.429Z,4.94
2019-02-20T07:01:38.095Z,4.91
2019-02-20T07:04:06.821Z,4.97
2019-02-20T07:07:09.203Z,4.97
2019-02-20T07:10:15.078Z,5.02
2019-02-20T07:13:12.087Z,4.99
2019-02-20T07:16:27.396Z,4.98
2019-02-20T07:19:15.245Z,4.94
2019-02-20T07:22:21.564Z,5.03
2019-02-20T07:25:34.582Z,5.04
2019-02-20T07:28:40.193Z,5.11
2019-02-20T07:31:08.875Z,5.23
2019-02-20T07:33:37.601Z,5.21
2019-02-20T07:36:06.364Z,5.22
2019-02-20T07:38:35.043Z,5.22
2019-02-20T07:41:03.784Z,5.22
2019-02-20T07:43:32.722Z,5.17
2019-02-20T07:46:01.481Z,5.20
2019-02-20T07:48:30.169Z,5.21
2019-02-20T07:50:59.184Z,5.15
2019-02-20T07:53:27.854Z,5.22
2019-02-20T07:55:56.869Z,5.14
2019-02-20T07:58:25.856Z,5.22
2019-02-20T08:00:54.537Z,5.22
2019-02-20T08:03:23.549Z,5.31
2019-02-20T08:05:52.588Z,5.38
2019-02-20T08:08:21.257Z,5.38
2019-02-20T08:10:50.317Z,5.42
2019-02-20T08:13:19.477Z,5.50
2019-02-20T08:15:48.172Z,5.50
2019-02-20T08:18:16.829Z,5.53
2019-02-20T08:20:45.741Z,5.48
2019-02-20T08:23:14.755Z,5.48
2019-02-20T08:25:43.456Z,5.52
2019-02-20T08:28:12.124Z,5.62
2019-02-20T08:30:40.844Z,5.61
2019-02-20T08:33:09.514Z,5.65
2019-02-20T08:35:38.764Z,5.68
2019-02-20T08:38:07.450Z,5.74
2019-02-20T08:40:36.448Z,5.75
2019-02-20T08:43:05.410Z,5.77
2019-02-20T08:45:34.360Z,5.78
2019-02-20T08:48:03.053Z,5.77
2019-02-20T08:50:31.743Z,5.74
2019-02-20T08:53:00.428Z,5.84
2019-02-20T08:55:31.998Z,5.87
2019-02-20T08:57:59.720Z,5.90
2019-02-20T09:00:28.382Z,5.92
2019-02-20T09:02:57.060Z,5.84
2019-02-20T09:05:25.998Z,5.92
2019-02-20T09:07:54.678Z,5.90
2019-02-20T09:10:23.352Z,5.95
2019-02-20T09:12:52.288Z,6.02
2019-02-20T09:15:21.242Z,6.11
2019-02-20T09:17:50.574Z,6.16
2019-02-20T09:20:19.585Z,6.20
2019-02-20T09:22:48.279Z,6.21
2019-02-20T09:25:19.944Z,6.28
2019-02-20T09:27:47.622Z,6.36
2019-02-20T09:30:16.435Z,6.32
2019-02-20T09:32:45.132Z,6.42
2019-02-20T09:35:13.862Z,6.49
2019-02-20T09:37:42.638Z,6.52
2019-02-20T09:40:16.001Z,6.64
2019-02-20T09:42:46.268Z,6.62
2019-02-20T09:45:15.011Z,6.58
2019-02-20T09:47:43.697Z,6.67
2019-02-20T09:50:12.792Z,6.66
2019-02-20T09:52:41.406Z,6.61
2019-02-20T09:55:10.901Z,6.65
2019-02-20T09:57:39.568Z,6.68
2019-02-20T10:00:11.248Z,6.70
2019-02-20T10:02:39.928Z,6.65
2019-02-20T10:05:09.121Z,6.66
2019-02-20T10:07:37.790Z,6.71
2019-02-20T10:10:06.789Z,6.72
2019-02-20T10:12:35.437Z,6.68
2019-02-20T10:15:04.848Z,6.75
2019-02-20T10:17:33.840Z,6.76
2019-02-20T10:20:02.518Z,6.99
2019-02-20T10:22:31.520Z,7.15
2019-02-20T10:25:00.348Z,7.29
2019-02-20T10:27:29.329Z,7.18
2019-02-20T10:29:58.244Z,7.14
2019-02-20T10:32:27.497Z,7.10
2019-02-20T10:34:56.493Z,7.14
2019-02-20T10:37:25.418Z,7.31
2019-02-20T10:39:54.093Z,7.38
2019-02-20T10:42:22.766Z,7.36
2019-02-20T10:44:52.057Z,7.43
2019-02-20T10:47:20.736Z,7.33
2019-02-20T10:49:49.418Z,7.36
2019-02-20T10:52:18.071Z,7.44
2019-02-20T10:54:47.929Z,7.50
2019-02-20T10:57:16.637Z,7.74
2019-02-20T10:59:45.314Z,7.88
2019-02-20T11:02:14.416Z,7.98
2019-02-20T11:04:43.475Z,8.22
2019-02-20T11:07:12.670Z,8.36
2019-02-20T11:09:41.378Z,8.26
2019-02-20T11:12:10.049Z,8.30
2019-02-20T11:14:38.734Z,8.34
2019-02-20T11:17:07.410Z,8.34
2019-02-20T11:19:36.109Z,8.12
2019-02-20T11:22:04.861Z,8.12
2019-02-20T11:24:33.764Z,8.21
2019-02-20T11:27:02.511Z,8.19
2019-02-20T11:29:31.718Z,8.11
2019-02-20T11:32:00.669Z,8.04
2019-02-20T11:34:29.343Z,8.14
2019-02-20T11:36:58.353Z,8.12
2019-02-20T11:39:27.339Z,8.12
2019-02-20T11:41:56.019Z,8.22
2019-02-20T11:44:24.935Z,8.31
2019-02-20T11:46:53.621Z,8.28
2019-02-20T11:49:22.310Z,8.25
2019-02-20T11:51:50.990Z,8.30
2019-02-20T11:54:20.270Z,8.19
2019-02-20T11:56:49.489Z,8.34
2019-02-20T11:59:18.176Z,8.18
2019-02-20T12:01:46.881Z,8.25
2019-02-20T12:04:15.771Z,8.29
2019-02-20T12:06:44.716Z,8.47
2019-02-20T12:09:13.706Z,8.49
2019-02-20T12:11:42.623Z,8.30
2019-02-20T12:14:11.341Z,8.20
2019-02-20T12:16:40.021Z,8.24
2019-02-20T12:19:09.384Z,8.26
2019-02-20T12:21:38.087Z,8.38
2019-02-20T12:24:06.827Z,8.59
2019-02-20T12:26:35.549Z,8.69
2019-02-20T12:29:04.454Z,8.75
2019-02-20T12:31:33.473Z,8.69
2019-02-20T12:34:02.820Z,8.72
2019-02-20T12:36:31.815Z,8.80
2019-02-20T12:39:01.005Z,8.90
2019-02-20T12:41:30.330Z,8.87
2019-02-20T12:43:59.502Z,8.90
2019-02-20T12:46:28.279Z,8.91
2019-02-20T12:48:57.298Z,8.85
2019-02-20T12:51:25.997Z,8.84
2019-02-20T12:53:55.179Z,8.66
2019-02-20T12:56:24.183Z,8.67
2019-02-20T12:58:52.838Z,8.80
2019-02-20T13:01:21.522Z,8.83
2019-02-20T13:03:50.220Z,8.84
2019-02-20T13:06:18.979Z,8.72
2019-02-20T13:08:47.786Z,8.70
2019-02-20T13:11:16.471Z,8.61
2019-02-20T13:13:45.473Z,8.72
2019-02-20T13:16:14.463Z,8.73
2019-02-20T13:18:43.148Z,8.81
2019-02-20T13:21:11.837Z,8.79
2019-02-20T13:23:40.829Z,8.71
2019-02-20T13:26:10.023Z,8.69
2019-02-20T13:28:38.686Z,8.70
2019-02-20T13:31:07.449Z,8.78
2019-02-20T13:33:36.463Z,8.81
2019-02-20T13:36:05.615Z,8.61
2019-02-20T13:38:34.314Z,8.69
2019-02-20T13:41:03.110Z,8.79
2019-02-20T13:43:32.094Z,8.76
2019-02-20T13:46:01.024Z,8.75
2019-02-20T13:48:31.836Z,8.75
2019-02-20T13:51:00.584Z,8.74
2019-02-20T13:53:29.355Z,8.76
2019-02-20T13:55:58.099Z,8.73
2019-02-20T13:58:27.653Z,8.70
2019-02-20T14:00:56.640Z,8.75
2019-02-20T14:03:25.345Z,8.69
2019-02-20T14:05:54.069Z,8.69
2019-02-20T14:08:23.025Z,8.68
2019-02-20T14:10:51.710Z,8.75
2019-02-20T14:13:20.396Z,8.83
2019-02-20T14:15:49.169Z,8.80
2019-02-20T14:18:18.187Z,8.73
2019-02-20T14:20:47.155Z,8.64
2019-02-20T14:23:15.855Z,8.64
2019-02-20T14:25:45.247Z,8.70
2019-02-20T14:28:13.978Z,8.84
2019-02-20T14:30:43.328Z,8.92
2019-02-20T14:33:12.029Z,8.83
2019-02-20T14:35:40.735Z,8.81
2019-02-20T14:38:09.458Z,8.85
2019-02-20T14:40:38.469Z,8.82
2019-02-20T14:43:07.153Z,8.81
2019-02-20T14:45:36.286Z,8.87
2019-02-20T14:48:05.318Z,8.92
2019-02-20T14:50:34.332Z,8.91
2019-02-20T14:53:03.069Z,8.93
2019-02-20T14:55:32.025Z,8.98
2019-02-20T14:58:00.765Z,8.99
2019-02-20T15:00:29.803Z,8.99
2019-02-20T15:02:58.903Z,8.91
2019-02-20T15:05:27.621Z,8.91
2019-02-20T15:07:56.589Z,8.86
2019-02-20T15:10:25.581Z,8.85
2019-02-20T15:12:54.269Z,8.87
2019-02-20T15:15:22.955Z,8.85
2019-02-20T15:17:51.934Z,8.90
2019-02-20T15:20:20.707Z,8.88
2019-02-20T15:22:49.713Z,8.93
2019-02-20T15:25:18.425Z,8.90
2019-02-20T15:27:47.090Z,8.85
2019-02-20T15:30:16.178Z,8.88
2019-02-20T15:32:45.176Z,8.90
2019-02-20T15:35:14.681Z,8.90
2019-02-20T15:37:44.595Z,8.87
2019-02-20T15:40:13.652Z,8.85
2019-02-20T15:42:42.352Z,8.81
2019-02-20T15:45:11.877Z,8.82
2019-02-20T15:47:40.976Z,8.83
2019-02-20T15:50:10.828Z,8.82
2019-02-20T15:52:39.854Z,8.81
2019-02-20T15:55:08.788Z,8.82
2019-02-20T15:57:38.408Z,8.80
2019-02-20T16:00:09.230Z,8.78
2019-02-20T16:02:37.919Z,8.80
2019-02-20T16:05:07.577Z,8.76
2019-02-20T16:07:36.452Z,8.73
2019-02-20T16:10:07.233Z,8.75
2019-02-20T16:12:35.982Z,8.74
2019-02-20T16:15:04.937Z,8.74
2019-02-20T16:17:33.891Z,8.70
2019-02-20T16:20:02.605Z,8.66
2019-02-20T16:22:31.904Z,8.64
2019-02-20T16:25:00.889Z,8.60
2019-02-20T16:27:29.882Z,8.56
2019-02-20T16:29:58.897Z,8.48
2019-02-20T16:32:27.586Z,8.46
2019-02-20T16:34:56.359Z,8.44
2019-02-20T16:37:25.060Z,8.40
2019-02-20T16:39:53.751Z,8.38
2019-02-20T16:42:22.662Z,8.34
2019-02-20T16:44:51.586Z,8.33
2019-02-20T16:47:20.285Z,8.38
2019-02-20T16:49:49.210Z,8.37
2019-02-20T16:52:17.968Z,8.36
2019-02-20T16:54:47.184Z,8.34
2019-02-20T16:57:16.095Z,8.33
2019-02-20T16:59:45.038Z,8.30
2019-02-20T17:02:14.358Z,8.28
2019-02-20T17:04:43.046Z,8.28
2019-02-20T17:07:11.855Z,8.24
2019-02-20T17:09:40.523Z,8.23
2019-02-20T17:12:09.629Z,8.24
2019-02-20T17:14:38.797Z,8.22
2019-02-20T17:17:07.899Z,8.23
2019-02-20T17:19:37.125Z,8.25
2019-02-20T17:22:05.808Z,8.22
2019-02-20T17:24:34.719Z,8.23
2019-02-20T17:27:03.757Z,8.23
2019-02-20T17:29:32.492Z,8.20
2019-02-20T17:32:01.438Z,8.22
2019-02-20T17:34:30.125Z,8.20
2019-02-20T17:36:58.812Z,8.24
2019-02-20T17:39:27.819Z,8.22
2019-02-20T17:41:56.763Z,8.19
2019-02-20T17:44:26.189Z,8.19
2019-02-20T17:46:55.725Z,8.20
2019-02-20T17:49:24.398Z,8.19
2019-02-20T17:51:53.331Z,8.16
2019-02-20T17:54:22.006Z,8.14
2019-02-20T17:56:50.703Z,8.15
2019-02-20T17:59:19.392Z,8.14
2019-02-20T18:01:48.408Z,8.14
2019-02-20T18:04:17.321Z,8.15
2019-02-20T18:06:46.018Z,8.12
2019-02-20T18:09:15.162Z,8.14
2019-02-20T18:11:44.089Z,8.08
2019-02-20T18:14:13.066Z,8.06
2019-02-20T18:16:41.759Z,8.06
2019-02-20T18:19:10.908Z,8.05
2019-02-20T18:21:39.855Z,8.00
2019-02-20T18:24:08.606Z,7.98
2019-02-20T18:26:37.362Z,7.93
2019-02-20T18:29:06.137Z,7.94
2019-02-20T18:31:35.103Z,7.92
2019-02-20T18:34:05.143Z,7.86
2019-02-20T18:36:33.857Z,7.88
2019-02-20T18:39:04.710Z,7.84
2019-02-20T18:41:33.183Z,7.82
2019-02-20T18:44:02.325Z,7.83
2019-02-20T18:46:31.026Z,7.83
2019-02-20T18:49:00.642Z,7.80
2019-02-20T18:51:30.140Z,7.32
2019-02-20T18:53:58.802Z,7.77
2019-02-20T18:56:28.173Z,7.73
2019-02-20T18:58:56.907Z,7.70
2019-02-20T19:01:25.852Z,7.64
2019-02-20T19:03:56.716Z,7.64
2019-02-20T19:06:25.193Z,7.66
2019-02-20T19:09:05.316Z,7.63
2019-02-20T19:11:45.516Z,7.67
2019-02-20T19:14:41.955Z,7.74
2019-02-20T19:17:45.952Z,7.72
2019-02-20T19:20:24.556Z,7.68
2019-02-20T19:23:33.417Z,7.66
2019-02-20T19:26:24.995Z,7.60
2019-02-20T19:29:27.243Z,7.56
2019-02-20T19:32:38.796Z,7.44
2019-02-20T19:35:26.797Z,7.43
2019-02-20T19:38:38.751Z,7.41
2019-02-20T19:41:21.351Z,7.41
2019-02-20T19:44:13.762Z,7.43
2019-02-20T19:46:56.052Z,7.43
2019-02-20T19:49:45.722Z,7.41
2019-02-20T19:52:58.322Z,7.40
2019-02-20T19:56:02.194Z,7.28
2019-02-20T19:59:09.205Z,7.25
2019-02-20T20:02:14.011Z,7.15
2019-02-20T20:05:25.943Z,7.19
2019-02-20T20:08:31.484Z,7.27
2019-02-20T20:11:44.404Z,7.25
2019-02-20T20:14:51.798Z,7.30
2019-02-20T20:17:42.043Z,7.30
2019-02-20T20:20:48.420Z,7.29
2019-02-20T20:24:04.731Z,7.30
2019-02-20T20:27:09.533Z,7.26
2019-02-20T20:30:28.954Z,7.24
2019-02-20T20:33:17.533Z,7.20
2019-02-20T20:36:25.155Z,7.21
2019-02-20T20:39:36.739Z,7.17
2019-02-20T20:43:11.004Z,7.17
2019-02-20T20:45:50.194Z,7.13
2019-02-20T20:48:29.341Z,7.12
2019-02-20T20:51:41.844Z,7.08
2019-02-20T20:54:42.257Z,7.06
2019-02-20T20:57:22.221Z,7.01
2019-02-20T21:00:22.979Z,6.97
2019-02-20T21:03:05.201Z,6.94
2019-02-20T21:05:50.761Z,6.92
2019-02-20T21:08:55.755Z,6.90
2019-02-20T21:11:40.713Z,6.84
2019-02-20T21:14:28.524Z,6.87
2019-02-20T21:17:34.349Z,6.86
2019-02-20T21:20:32.816Z,6.85
2019-02-20T21:23:29.602Z,6.81
2019-02-20T21:26:21.880Z,6.76
2019-02-20T21:29:01.572Z,6.77
2019-02-20T21:32:10.276Z,6.77
2019-02-20T21:35:07.368Z,6.73
2019-02-20T21:38:19.010Z,6.70
2019-02-20T21:40:53.288Z,6.74
2019-02-20T21:44:24.467Z,6.73
2019-02-20T21:47:07.235Z,6.75
2019-02-20T21:50:13.598Z,6.72
2019-02-20T21:53:29.734Z,6.73
2019-02-20T21:56:25.699Z,6.71
2019-02-20T21:59:39.137Z,6.77
2019-02-20T22:02:28.247Z,6.78
2019-02-20T22:05:24.992Z,6.83
2019-02-20T22:08:10.757Z,6.87
2019-02-20T22:11:24.339Z,6.88
2019-02-20T22:14:28.830Z,6.87
2019-02-20T22:17:34.787Z,6.81
2019-02-20T22:20:34.382Z,6.22
2019-02-20T22:23:50.307Z,6.85
2019-02-20T22:26:33.493Z,6.82
2019-02-20T22:29:19.887Z,6.81
2019-02-20T22:32:20.283Z,6.80
2019-02-20T22:35:02.169Z,6.81
2019-02-20T22:37:52.356Z,6.82
2019-02-20T22:41:14.310Z,6.90
2019-02-20T22:44:18.787Z,6.96
2019-02-20T22:47:17.694Z,6.96
2019-02-20T22:50:14.865Z,6.67
2019-02-20T22:53:08.442Z,7.03
2019-02-20T22:56:19.863Z,7.01
2019-02-20T22:59:42.198Z,7.06
2019-02-20T23:02:46.880Z,7.13
2019-02-20T23:05:49.554Z,7.05
2019-02-20T23:08:33.840Z,6.98
2019-02-20T23:11:31.010Z,6.94
2019-02-20T23:14:53.148Z,6.97
2019-02-20T23:17:21.881Z,6.92
2019-02-20T23:19:50.660Z,6.80
2019-02-20T23:22:19.486Z,6.76
2019-02-20T23:24:48.257Z,6.73
2019-02-20T23:27:16.981Z,6.73
2019-02-20T23:29:45.727Z,6.75
2019-02-20T23:32:14.475Z,6.78
2019-02-20T23:34:43.514Z,6.86
2019-02-20T23:37:12.288Z,6.84
2019-02-20T23:39:40.948Z,6.87
2019-02-20T23:42:11.147Z,6.93
2019-02-20T23:44:39.841Z,6.93
2019-02-20T23:47:08.781Z,6.96
2019-02-20T23:49:37.470Z,6.97
2019-02-20T23:52:06.268Z,6.99
2019-02-20T23:54:35.448Z,6.97
2019-02-20T23:57:04.460Z,6.92
2019-02-20T23:59:33.709Z,6.96
